createdAt,value
2019-01-17T00:00:06.030Z,3.50
2019-01-17T00:01:05.466Z,3.50
2019-01-17T00:02:05.626Z,3.56
2019-01-17T00:03:05.802Z,3.56
2019-01-17T00:04:05.477Z,3.50
2019-01-17T00:05:05.704Z,3.50
2019-01-17T00:06:05.697Z,3.56
2019-01-17T00:07:05.310Z,3.56
2019-01-17T00:08:05.482Z,3.56
2019-01-17T00:09:05.886Z,3.56
2019-01-17T00:10:06.024Z,3.56
2019-01-17T00:11:05.952Z,3.56
2019-01-17T00:12:05.831Z,3.56
2019-01-17T00:13:06.026Z,3.56
2019-01-17T00:14:05.675Z,3.56
2019-01-17T00:15:05.384Z,3.62
2019-01-17T00:16:05.401Z,3.69
2019-01-17T00:17:05.702Z,3.69
2019-01-17T00:18:05.790Z,3.69
2019-01-17T00:19:05.486Z,3.75
2019-01-17T00:20:05.925Z,3.75
2019-01-17T00:21:05.637Z,3.75
2019-01-17T00:22:05.930Z,3.75
2019-01-17T00:23:05.720Z,3.69
2019-01-17T00:24:05.527Z,3.69
2019-01-17T00:25:05.559Z,3.69
2019-01-17T00:26:05.773Z,3.69
2019-01-17T00:27:05.383Z,3.69
2019-01-17T00:28:06.407Z,3.69
2019-01-17T00:29:06.136Z,3.69
2019-01-17T00:30:06.985Z,3.69
2019-01-17T00:31:05.599Z,3.69
2019-01-17T00:32:05.854Z,3.69
2019-01-17T00:33:06.038Z,3.69
2019-01-17T00:34:05.955Z,3.62
2019-01-17T00:35:05.388Z,3.62
2019-01-17T00:36:05.932Z,3.62
2019-01-17T00:37:06.050Z,3.62
2019-01-17T00:38:05.934Z,3.62
2019-01-17T00:39:05.961Z,3.62
2019-01-17T00:40:05.782Z,3.62
2019-01-17T00:41:05.950Z,3.62
2019-01-17T00:42:05.518Z,3.62
2019-01-17T00:43:05.604Z,3.62
2019-01-17T00:44:06.187Z,3.69
2019-01-17T00:45:05.392Z,3.62
2019-01-17T00:46:05.858Z,3.62
2019-01-17T00:47:05.976Z,3.62
2019-01-17T00:48:05.843Z,3.62
2019-01-17T00:49:06.049Z,3.62
2019-01-17T00:50:05.303Z,3.62
2019-01-17T00:51:05.590Z,3.62
2019-01-17T00:52:07.035Z,3.62
2019-01-17T00:53:05.715Z,3.62
2019-01-17T00:54:09.114Z,3.62
2019-01-17T00:55:05.706Z,3.62
2019-01-17T00:56:05.309Z,3.62
2019-01-17T00:57:05.797Z,3.62
2019-01-17T00:58:05.924Z,3.62
2019-01-17T00:59:05.417Z,3.62
2019-01-17T01:00:05.444Z,3.62
2019-01-17T01:01:05.889Z,3.69
2019-01-17T01:02:05.800Z,3.69
2019-01-17T01:03:05.385Z,3.69
2019-01-17T01:04:05.707Z,3.62
2019-01-17T01:05:05.780Z,3.62
2019-01-17T01:06:05.786Z,3.69
2019-01-17T01:07:05.219Z,3.69
2019-01-17T01:08:05.942Z,3.69
2019-01-17T01:09:05.800Z,3.69
2019-01-17T01:10:05.470Z,3.75
2019-01-17T01:11:05.873Z,3.75
2019-01-17T01:12:06.016Z,3.75
2019-01-17T01:13:05.255Z,3.75
2019-01-17T01:14:05.395Z,3.75
2019-01-17T01:15:05.632Z,3.75
2019-01-17T01:16:05.646Z,3.81
2019-01-17T01:17:05.954Z,3.81
2019-01-17T01:18:06.035Z,3.88
2019-01-17T01:19:05.237Z,3.88
2019-01-17T01:20:05.719Z,3.88
2019-01-17T01:21:05.937Z,3.88
2019-01-17T01:22:05.630Z,3.88
2019-01-17T01:23:05.603Z,3.88
2019-01-17T01:24:05.874Z,3.88
2019-01-17T01:25:06.030Z,3.94
2019-01-17T01:26:05.631Z,3.94
2019-01-17T01:27:05.937Z,3.94
2019-01-17T01:28:05.443Z,4.00
2019-01-17T01:29:05.202Z,4.00
2019-01-17T01:30:05.954Z,4.06
2019-01-17T01:31:05.235Z,4.06
2019-01-17T01:32:06.041Z,4.06
2019-01-17T01:33:05.312Z,4.06
2019-01-17T01:34:05.955Z,4.06
2019-01-17T01:35:05.714Z,4.06
2019-01-17T01:36:05.308Z,4.12
2019-01-17T01:37:05.729Z,4.12
2019-01-17T01:38:05.724Z,4.12
2019-01-17T01:39:05.897Z,4.12
2019-01-17T01:40:05.761Z,4.12
2019-01-17T01:41:05.900Z,4.19
2019-01-17T01:42:06.024Z,4.19
2019-01-17T01:43:05.492Z,4.25
2019-01-17T01:44:05.481Z,4.25
2019-01-17T01:45:05.492Z,4.31
2019-01-17T01:46:05.367Z,4.31
2019-01-17T01:47:06.048Z,4.31
2019-01-17T01:48:05.998Z,4.38
2019-01-17T01:49:05.155Z,4.38
2019-01-17T01:50:05.445Z,4.38
2019-01-17T01:51:05.525Z,4.38
2019-01-17T01:52:06.116Z,4.44
2019-01-17T01:53:05.147Z,4.44
2019-01-17T01:54:05.210Z,4.44
2019-01-17T01:55:05.767Z,4.44
2019-01-17T01:56:05.950Z,4.50
2019-01-17T01:57:05.814Z,4.50
2019-01-17T01:58:05.440Z,4.56
2019-01-17T01:59:06.052Z,4.56
2019-01-17T02:00:05.545Z,4.56
2019-01-17T02:01:05.529Z,4.56
2019-01-17T02:02:05.769Z,4.56
2019-01-17T02:03:06.124Z,4.56
2019-01-17T02:04:05.284Z,4.56
2019-01-17T02:05:05.889Z,4.56
2019-01-17T02:06:05.762Z,4.56
2019-01-17T02:07:05.229Z,4.62
2019-01-17T02:08:05.521Z,4.62
2019-01-17T02:09:05.545Z,4.62
2019-01-17T02:10:05.484Z,4.62
2019-01-17T02:11:05.795Z,4.62
2019-01-17T02:12:05.205Z,4.69
2019-01-17T02:13:05.533Z,4.69
2019-01-17T02:14:05.150Z,4.69
2019-01-17T02:15:05.271Z,4.69
2019-01-17T02:16:05.464Z,4.69
2019-01-17T02:17:05.710Z,4.69
2019-01-17T02:18:05.292Z,4.75
2019-01-17T02:19:05.789Z,4.75
2019-01-17T02:20:05.862Z,4.75
2019-01-17T02:21:06.113Z,4.75
2019-01-17T02:22:05.133Z,4.75
2019-01-17T02:23:05.236Z,4.75
2019-01-17T02:24:05.286Z,4.81
2019-01-17T02:25:06.453Z,4.81
2019-01-17T02:26:05.788Z,4.81
2019-01-17T02:27:06.023Z,4.81
2019-01-17T02:28:05.291Z,4.81
2019-01-17T02:29:07.065Z,4.81
2019-01-17T02:30:05.446Z,4.81
2019-01-17T02:31:05.615Z,4.88
2019-01-17T02:32:06.017Z,4.88
2019-01-17T02:33:05.554Z,4.81
2019-01-17T02:34:06.008Z,4.81
2019-01-17T02:35:05.212Z,4.81
2019-01-17T02:36:05.765Z,4.81
2019-01-17T02:37:05.904Z,4.81
2019-01-17T02:38:05.785Z,4.81
2019-01-17T02:39:05.978Z,4.88
2019-01-17T02:40:05.931Z,4.88
2019-01-17T02:41:06.032Z,4.88
2019-01-17T02:42:05.445Z,4.88
2019-01-17T02:43:05.477Z,4.88
2019-01-17T02:44:05.761Z,4.88
2019-01-17T02:45:05.602Z,4.88
2019-01-17T02:46:05.951Z,4.88
2019-01-17T02:47:05.946Z,4.88
2019-01-17T02:48:05.522Z,4.88
2019-01-17T02:49:05.493Z,4.94
2019-01-17T02:50:05.457Z,4.88
2019-01-17T02:51:05.708Z,4.88
2019-01-17T02:52:06.092Z,4.88
2019-01-17T02:53:05.788Z,4.88
2019-01-17T02:54:05.366Z,4.88
2019-01-17T02:55:05.314Z,4.88
2019-01-17T02:56:06.029Z,4.88
2019-01-17T02:57:06.119Z,4.88
2019-01-17T02:58:05.690Z,4.88
2019-01-17T02:59:05.389Z,4.88
2019-01-17T03:00:05.476Z,4.88
2019-01-17T03:01:05.834Z,4.88
2019-01-17T03:02:05.889Z,4.88
2019-01-17T03:03:05.558Z,4.88
2019-01-17T03:04:05.701Z,4.88
2019-01-17T03:05:06.432Z,4.88
2019-01-17T03:06:05.147Z,4.94
2019-01-17T03:07:05.546Z,4.88
2019-01-17T03:08:05.330Z,4.88
2019-01-17T03:09:05.870Z,4.88
2019-01-17T03:10:06.023Z,4.88
2019-01-17T03:11:05.360Z,4.88
2019-01-17T03:12:05.935Z,4.88
2019-01-17T03:13:05.640Z,4.88
2019-01-17T03:14:05.626Z,4.81
2019-01-17T03:15:06.117Z,4.81
2019-01-17T03:16:05.447Z,4.81
2019-01-17T03:17:06.031Z,4.81
2019-01-17T03:18:06.103Z,4.81
2019-01-17T03:19:05.488Z,4.81
2019-01-17T03:20:06.339Z,4.81
2019-01-17T03:21:05.965Z,4.75
2019-01-17T03:22:05.561Z,4.75
2019-01-17T03:23:05.949Z,4.75
2019-01-17T03:24:06.020Z,4.75
2019-01-17T03:25:06.010Z,4.69
2019-01-17T03:26:05.693Z,4.69
2019-01-17T03:27:05.699Z,4.69
2019-01-17T03:28:06.094Z,4.69
2019-01-17T03:29:06.007Z,4.69
2019-01-17T03:30:05.480Z,4.69
2019-01-17T03:31:05.931Z,4.69
2019-01-17T03:32:06.200Z,4.69
2019-01-17T03:33:05.642Z,4.69
2019-01-17T03:34:05.872Z,4.69
2019-01-17T03:35:05.648Z,4.69
2019-01-17T03:36:05.613Z,4.69
2019-01-17T03:37:05.549Z,4.69
2019-01-17T03:38:05.615Z,4.69
2019-01-17T03:39:05.811Z,4.69
2019-01-17T03:40:05.681Z,4.69
2019-01-17T03:41:05.776Z,4.69
2019-01-17T03:42:05.520Z,4.69
2019-01-17T03:43:05.695Z,4.69
2019-01-17T03:44:05.970Z,4.69
2019-01-17T03:45:05.879Z,4.69
2019-01-17T03:46:05.719Z,4.69
2019-01-17T03:47:06.114Z,4.69
2019-01-17T03:48:06.179Z,4.69
2019-01-17T03:49:05.361Z,4.69
2019-01-17T03:50:05.866Z,4.75
2019-01-17T03:51:05.880Z,4.75
2019-01-17T03:52:06.012Z,4.69
2019-01-17T03:53:05.209Z,4.75
2019-01-17T03:54:05.868Z,4.75
2019-01-17T03:55:06.030Z,4.75
2019-01-17T03:56:05.976Z,4.75
2019-01-17T03:57:05.358Z,4.75
2019-01-17T03:58:05.774Z,4.75
2019-01-17T03:59:05.781Z,4.75
2019-01-17T04:00:05.404Z,4.75
2019-01-17T04:01:06.061Z,4.75
2019-01-17T04:02:06.110Z,4.75
2019-01-17T04:03:05.548Z,4.75
2019-01-17T04:04:05.635Z,4.75
2019-01-17T04:05:06.198Z,4.75
2019-01-17T04:06:05.875Z,4.69
2019-01-17T04:07:05.875Z,4.75
2019-01-17T04:08:05.549Z,4.69
2019-01-17T04:09:06.036Z,4.69
2019-01-17T04:10:05.195Z,4.69
2019-01-17T04:11:05.698Z,4.75
2019-01-17T04:12:05.544Z,4.69
2019-01-17T04:13:05.548Z,4.69
2019-01-17T04:14:05.611Z,4.69
2019-01-17T04:15:05.632Z,4.69
2019-01-17T04:16:05.118Z,4.69
2019-01-17T04:17:05.391Z,4.69
2019-01-17T04:18:06.094Z,4.69
2019-01-17T04:19:05.563Z,4.69
2019-01-17T04:20:05.772Z,4.69
2019-01-17T04:21:05.874Z,4.69
2019-01-17T04:22:05.529Z,4.69
2019-01-17T04:23:05.686Z,4.69
2019-01-17T04:24:06.029Z,4.69
2019-01-17T04:25:05.709Z,4.69
2019-01-17T04:26:05.931Z,4.69
2019-01-17T04:27:05.971Z,4.69
2019-01-17T04:28:06.024Z,4.69
2019-01-17T04:29:05.888Z,4.69
2019-01-17T04:30:05.753Z,4.69
2019-01-17T04:31:05.464Z,4.69
2019-01-17T04:32:05.764Z,4.69
2019-01-17T04:33:05.876Z,4.69
2019-01-17T04:34:05.868Z,4.69
2019-01-17T04:35:05.380Z,4.69
2019-01-17T04:36:05.972Z,4.75
2019-01-17T04:37:05.464Z,4.75
2019-01-17T04:38:05.853Z,4.75
2019-01-17T04:39:05.958Z,4.75
2019-01-17T04:40:05.532Z,4.75
2019-01-17T04:41:06.108Z,4.75
2019-01-17T04:42:05.405Z,4.75
2019-01-17T04:43:05.624Z,4.75
2019-01-17T04:44:06.004Z,4.75
2019-01-17T04:45:05.312Z,4.75
2019-01-17T04:46:06.167Z,4.81
2019-01-17T04:47:05.694Z,4.81
2019-01-17T04:48:06.172Z,4.81
2019-01-17T04:49:05.379Z,4.81
2019-01-17T04:50:06.096Z,4.81
2019-01-17T04:51:05.303Z,4.81
2019-01-17T04:52:06.043Z,4.81
2019-01-17T04:53:05.472Z,4.81
2019-01-17T04:54:05.614Z,4.81
2019-01-17T04:55:05.819Z,4.81
2019-01-17T04:56:05.474Z,4.81
2019-01-17T04:57:05.898Z,4.75
2019-01-17T04:58:05.769Z,4.75
2019-01-17T04:59:05.556Z,4.75
2019-01-17T05:00:05.519Z,4.81
2019-01-17T05:01:06.034Z,4.81
2019-01-17T05:02:06.178Z,4.81
2019-01-17T05:03:06.046Z,4.81
2019-01-17T05:04:05.845Z,4.81
2019-01-17T05:05:05.611Z,4.75
2019-01-17T05:06:05.930Z,4.75
2019-01-17T05:07:05.722Z,4.75
2019-01-17T05:08:05.786Z,4.75
2019-01-17T05:09:05.924Z,4.75
2019-01-17T05:10:05.466Z,4.75
2019-01-17T05:11:05.981Z,4.75
2019-01-17T05:12:05.863Z,4.75
2019-01-17T05:13:06.125Z,4.75
2019-01-17T05:14:05.289Z,4.75
2019-01-17T05:15:05.223Z,4.75
2019-01-17T05:16:05.862Z,4.75
2019-01-17T05:17:05.387Z,4.75
2019-01-17T05:18:06.014Z,4.75
2019-01-17T05:19:05.147Z,4.75
2019-01-17T05:20:05.116Z,4.75
2019-01-17T05:21:05.622Z,4.81
2019-01-17T05:22:05.945Z,4.81
2019-01-17T05:23:06.847Z,4.81
2019-01-17T05:24:05.386Z,4.75
2019-01-17T05:25:12.353Z,4.81
2019-01-17T05:26:05.297Z,4.81
2019-01-17T05:27:05.475Z,4.75
2019-01-17T05:28:05.372Z,4.81
2019-01-17T05:29:05.761Z,4.81
2019-01-17T05:30:05.214Z,4.81
2019-01-17T05:31:05.308Z,4.81
2019-01-17T05:32:05.631Z,4.81
2019-01-17T05:33:05.837Z,4.81
2019-01-17T05:34:05.833Z,4.81
2019-01-17T05:35:06.031Z,4.81
2019-01-17T05:36:05.050Z,4.81
2019-01-17T05:37:05.224Z,4.81
2019-01-17T05:38:05.474Z,4.81
2019-01-17T05:39:05.770Z,4.81
2019-01-17T05:40:05.302Z,4.81
2019-01-17T05:41:05.685Z,4.81
2019-01-17T05:42:06.052Z,4.81
2019-01-17T05:43:05.993Z,4.81
2019-01-17T05:44:05.523Z,4.81
2019-01-17T05:45:05.697Z,4.88
2019-01-17T05:46:06.179Z,4.88
2019-01-17T05:47:05.629Z,4.81
2019-01-17T05:48:05.867Z,4.88
2019-01-17T05:49:05.617Z,4.81
2019-01-17T05:50:06.098Z,4.88
2019-01-17T05:51:06.086Z,4.81
2019-01-17T05:52:05.615Z,4.88
2019-01-17T05:53:06.119Z,4.88
2019-01-17T05:54:06.009Z,4.81
2019-01-17T05:55:06.019Z,4.88
2019-01-17T05:56:05.672Z,4.88
2019-01-17T05:57:05.623Z,4.88
2019-01-17T05:58:06.087Z,4.88
2019-01-17T05:59:06.218Z,4.88
2019-01-17T06:00:05.718Z,4.88
2019-01-17T06:01:05.952Z,4.88
2019-01-17T06:02:05.607Z,4.88
2019-01-17T06:03:05.801Z,4.88
2019-01-17T06:04:05.761Z,4.88
2019-01-17T06:05:05.860Z,4.88
2019-01-17T06:06:05.691Z,4.88
2019-01-17T06:07:06.129Z,4.88
2019-01-17T06:08:06.088Z,4.88
2019-01-17T06:09:06.032Z,4.88
2019-01-17T06:10:05.952Z,4.88
2019-01-17T06:11:05.274Z,4.88
2019-01-17T06:12:05.688Z,4.88
2019-01-17T06:13:05.413Z,4.88
2019-01-17T06:14:05.688Z,4.88
2019-01-17T06:15:06.035Z,4.88
2019-01-17T06:16:06.016Z,4.88
2019-01-17T06:17:06.288Z,4.88
2019-01-17T06:18:05.718Z,4.88
2019-01-17T06:19:05.706Z,4.94
2019-01-17T06:20:05.468Z,4.88
2019-01-17T06:21:05.629Z,4.88
2019-01-17T06:22:06.160Z,4.88
2019-01-17T06:23:05.881Z,4.88
2019-01-17T06:24:05.886Z,4.88
2019-01-17T06:25:05.964Z,4.88
2019-01-17T06:26:05.758Z,4.88
2019-01-17T06:27:05.471Z,4.88
2019-01-17T06:28:05.366Z,4.88
2019-01-17T06:29:06.053Z,4.88
2019-01-17T06:30:05.678Z,4.88
2019-01-17T06:31:05.459Z,4.88
2019-01-17T06:32:05.641Z,4.88
2019-01-17T06:33:06.192Z,4.88
2019-01-17T06:34:05.866Z,4.88
2019-01-17T06:35:05.528Z,4.88
2019-01-17T06:36:05.849Z,4.88
2019-01-17T06:37:05.794Z,4.88
2019-01-17T06:38:05.627Z,4.88
2019-01-17T06:39:05.864Z,4.88
2019-01-17T06:40:05.948Z,4.88
2019-01-17T06:41:05.571Z,4.94
2019-01-17T06:42:05.615Z,4.88
2019-01-17T06:43:06.108Z,4.94
2019-01-17T06:44:06.095Z,4.88
2019-01-17T06:45:05.204Z,4.88
2019-01-17T06:46:05.787Z,4.94
2019-01-17T06:47:05.931Z,4.94
2019-01-17T06:48:05.871Z,4.94
2019-01-17T06:49:05.953Z,4.94
2019-01-17T06:50:05.453Z,4.94
2019-01-17T06:51:06.083Z,4.94
2019-01-17T06:52:05.855Z,4.94
2019-01-17T06:53:07.536Z,4.94
2019-01-17T06:54:06.094Z,4.94
2019-01-17T06:55:06.018Z,4.94
2019-01-17T06:56:05.995Z,4.94
2019-01-17T06:57:05.991Z,4.94
2019-01-17T06:58:06.010Z,4.94
2019-01-17T06:59:05.720Z,4.94
2019-01-17T07:00:06.024Z,4.94
2019-01-17T07:01:06.093Z,4.94
2019-01-17T07:02:05.684Z,4.94
2019-01-17T07:03:05.468Z,4.94
2019-01-17T07:04:05.618Z,4.94
2019-01-17T07:05:05.868Z,4.94
2019-01-17T07:06:05.546Z,4.94
2019-01-17T07:07:06.207Z,4.94
2019-01-17T07:08:06.089Z,4.94
2019-01-17T07:09:05.483Z,4.94
2019-01-17T07:10:05.933Z,4.94
2019-01-17T07:11:05.954Z,4.94
2019-01-17T07:12:05.631Z,4.94
2019-01-17T07:13:06.021Z,4.94
2019-01-17T07:14:06.020Z,4.94
2019-01-17T07:15:06.124Z,4.94
2019-01-17T07:16:05.611Z,4.94
2019-01-17T07:17:05.732Z,4.94
2019-01-17T07:18:06.010Z,4.94
2019-01-17T07:19:05.484Z,4.94
2019-01-17T07:20:05.543Z,5.00
2019-01-17T07:21:06.103Z,5.00
2019-01-17T07:22:05.856Z,5.00
2019-01-17T07:23:05.303Z,5.00
2019-01-17T07:24:06.012Z,5.00
2019-01-17T07:25:05.460Z,5.00
2019-01-17T07:26:06.017Z,5.00
2019-01-17T07:27:05.871Z,5.00
2019-01-17T07:28:06.014Z,5.00
2019-01-17T07:29:06.020Z,5.00
2019-01-17T07:30:05.784Z,5.00
2019-01-17T07:31:06.006Z,5.00
2019-01-17T07:32:05.401Z,5.00
2019-01-17T07:33:05.954Z,5.00
2019-01-17T07:34:05.901Z,5.00
2019-01-17T07:35:05.789Z,5.00
2019-01-17T07:36:05.441Z,5.00
2019-01-17T07:37:05.844Z,5.00
2019-01-17T07:38:07.215Z,5.00
2019-01-17T07:39:07.015Z,5.00
2019-01-17T07:40:05.541Z,5.00
2019-01-17T07:41:05.697Z,5.00
2019-01-17T07:42:06.163Z,5.00
2019-01-17T07:43:05.122Z,5.00
2019-01-17T07:44:05.825Z,5.00
2019-01-17T07:45:05.937Z,5.00
2019-01-17T07:46:05.204Z,5.00
2019-01-17T07:47:05.779Z,5.00
2019-01-17T07:48:05.546Z,5.00
2019-01-17T07:49:05.970Z,5.00
2019-01-17T07:50:05.679Z,5.00
2019-01-17T07:51:06.115Z,5.00
2019-01-17T07:52:05.814Z,5.00
2019-01-17T07:53:08.877Z,5.00
2019-01-17T07:54:05.702Z,5.06
2019-01-17T07:55:05.782Z,5.06
2019-01-17T07:56:05.384Z,5.06
2019-01-17T07:57:05.780Z,5.06
2019-01-17T07:58:06.022Z,5.06
2019-01-17T07:59:06.025Z,5.06
2019-01-17T08:00:05.276Z,5.06
2019-01-17T08:01:05.772Z,5.06
2019-01-17T08:02:05.359Z,5.06
2019-01-17T08:03:05.876Z,5.06
2019-01-17T08:04:05.356Z,5.06
2019-01-17T08:05:05.940Z,5.06
2019-01-17T08:06:06.083Z,5.06
2019-01-17T08:07:05.471Z,5.06
2019-01-17T08:08:05.933Z,5.06
2019-01-17T08:09:05.713Z,5.06
2019-01-17T08:10:06.326Z,5.06
2019-01-17T08:11:06.111Z,5.06
2019-01-17T08:12:05.445Z,5.12
2019-01-17T08:13:06.039Z,5.12
2019-01-17T08:14:05.871Z,5.06
2019-01-17T08:15:06.347Z,5.12
2019-01-17T08:16:05.459Z,5.12
2019-01-17T08:17:06.129Z,5.12
2019-01-17T08:18:05.938Z,5.12
2019-01-17T08:19:05.138Z,5.12
2019-01-17T08:20:05.937Z,5.12
2019-01-17T08:21:05.791Z,5.12
2019-01-17T08:22:05.872Z,5.12
2019-01-17T08:23:06.287Z,5.12
2019-01-17T08:24:05.288Z,5.19
2019-01-17T08:25:06.100Z,5.19
2019-01-17T08:26:05.367Z,5.12
2019-01-17T08:27:05.538Z,5.19
2019-01-17T08:28:05.228Z,5.19
2019-01-17T08:29:05.880Z,5.19
2019-01-17T08:30:05.777Z,5.19
2019-01-17T08:31:05.785Z,5.19
2019-01-17T08:32:05.620Z,5.19
2019-01-17T08:33:05.940Z,5.19
2019-01-17T08:34:05.475Z,5.19
2019-01-17T08:35:05.864Z,5.19
2019-01-17T08:36:05.629Z,5.19
2019-01-17T08:37:05.963Z,5.19
2019-01-17T08:38:06.097Z,5.19
2019-01-17T08:39:06.111Z,5.19
2019-01-17T08:40:05.367Z,5.19
2019-01-17T08:41:05.306Z,5.19
2019-01-17T08:42:05.923Z,5.19
2019-01-17T08:43:06.025Z,5.19
2019-01-17T08:44:05.863Z,5.19
2019-01-17T08:45:06.119Z,5.25
2019-01-17T08:46:06.110Z,5.25
2019-01-17T08:47:05.544Z,5.25
2019-01-17T08:48:06.085Z,5.25
2019-01-17T08:49:05.916Z,5.25
2019-01-17T08:50:05.351Z,5.25
2019-01-17T08:51:05.801Z,5.25
2019-01-17T08:52:05.454Z,5.25
2019-01-17T08:53:05.953Z,5.25
2019-01-17T08:54:06.043Z,5.25
2019-01-17T08:55:06.181Z,5.31
2019-01-17T08:56:05.695Z,5.31
2019-01-17T08:57:05.848Z,5.31
2019-01-17T08:58:06.915Z,5.31
2019-01-17T08:59:05.399Z,5.31
2019-01-17T09:00:06.035Z,5.31
2019-01-17T09:01:05.609Z,5.31
2019-01-17T09:02:05.700Z,5.31
2019-01-17T09:03:05.936Z,5.38
2019-01-17T09:04:05.527Z,5.38
2019-01-17T09:05:06.618Z,5.38
2019-01-17T09:06:05.333Z,5.38
2019-01-17T09:07:05.297Z,5.38
2019-01-17T09:08:06.178Z,5.44
2019-01-17T09:09:05.208Z,5.44
2019-01-17T09:10:05.869Z,5.44
2019-01-17T09:11:05.799Z,5.44
2019-01-17T09:12:06.090Z,5.44
2019-01-17T09:13:05.861Z,5.44
2019-01-17T09:14:06.551Z,5.44
2019-01-17T09:15:05.307Z,5.50
2019-01-17T09:16:06.323Z,5.50
2019-01-17T09:17:05.537Z,5.50
2019-01-17T09:18:06.014Z,5.50
2019-01-17T09:19:05.939Z,5.50
2019-01-17T09:20:06.318Z,5.50
2019-01-17T09:21:05.861Z,5.50
2019-01-17T09:22:06.169Z,5.50
2019-01-17T09:23:06.199Z,5.56
2019-01-17T09:24:05.209Z,5.56
2019-01-17T09:25:06.114Z,5.56
2019-01-17T09:26:07.557Z,5.56
2019-01-17T09:27:05.927Z,5.56
2019-01-17T09:28:05.478Z,5.56
2019-01-17T09:29:06.041Z,5.56
2019-01-17T09:30:05.535Z,5.62
2019-01-17T09:31:05.530Z,5.62
2019-01-17T09:32:05.863Z,5.62
2019-01-17T09:33:05.310Z,5.62
2019-01-17T09:34:05.432Z,5.62
2019-01-17T09:35:05.313Z,5.62
2019-01-17T09:36:05.296Z,5.69
2019-01-17T09:37:05.794Z,5.69
2019-01-17T09:38:06.253Z,5.69
2019-01-17T09:39:06.075Z,5.75
2019-01-17T09:40:05.392Z,5.75
2019-01-17T09:41:05.890Z,5.75
2019-01-17T09:42:06.167Z,5.75
2019-01-17T09:43:05.678Z,5.75
2019-01-17T09:44:05.302Z,5.75
2019-01-17T09:45:05.712Z,5.75
2019-01-17T09:46:06.038Z,5.75
2019-01-17T09:47:06.024Z,5.75
2019-01-17T09:48:05.692Z,5.81
2019-01-17T09:49:05.876Z,5.81
2019-01-17T09:50:06.339Z,5.81
2019-01-17T09:51:05.769Z,5.81
2019-01-17T09:52:06.334Z,5.81
2019-01-17T09:53:05.385Z,5.81
2019-01-17T09:54:05.460Z,5.81
2019-01-17T09:55:05.955Z,5.81
2019-01-17T09:56:06.109Z,5.81
2019-01-17T09:57:05.475Z,5.81
2019-01-17T09:58:05.285Z,5.88
2019-01-17T09:59:05.696Z,5.88
2019-01-17T10:00:06.018Z,5.88
2019-01-17T10:01:05.547Z,5.88
2019-01-17T10:02:05.934Z,5.88
2019-01-17T10:03:06.196Z,5.88
2019-01-17T10:04:05.635Z,5.94
2019-01-17T10:05:05.855Z,5.94
2019-01-17T10:06:05.447Z,5.94
2019-01-17T10:07:05.717Z,5.94
2019-01-17T10:08:05.676Z,5.94
2019-01-17T10:09:05.844Z,5.94
2019-01-17T10:10:05.542Z,5.94
2019-01-17T10:11:06.166Z,5.94
2019-01-17T10:12:06.032Z,5.94
2019-01-17T10:13:05.385Z,5.94
2019-01-17T10:14:05.371Z,6.00
2019-01-17T10:15:05.361Z,6.00
2019-01-17T10:16:07.220Z,6.00
2019-01-17T10:17:06.541Z,6.00
2019-01-17T10:18:06.238Z,6.00
2019-01-17T10:19:05.490Z,6.00
2019-01-17T10:20:05.982Z,6.06
2019-01-17T10:21:05.804Z,6.06
2019-01-17T10:22:05.787Z,6.06
2019-01-17T10:23:05.394Z,6.06
2019-01-17T10:24:05.462Z,6.06
2019-01-17T10:25:06.112Z,6.06
2019-01-17T10:26:06.047Z,6.06
2019-01-17T10:27:05.471Z,6.06
2019-01-17T10:28:05.627Z,6.06
2019-01-17T10:29:05.832Z,6.12
2019-01-17T10:30:05.866Z,6.12
2019-01-17T10:31:06.105Z,6.12
2019-01-17T10:32:05.758Z,6.12
2019-01-17T10:33:06.288Z,6.12
2019-01-17T10:34:06.017Z,6.12
2019-01-17T10:35:05.228Z,6.12
2019-01-17T10:36:06.004Z,6.12
2019-01-17T10:37:05.557Z,6.12
2019-01-17T10:38:05.631Z,6.12
2019-01-17T10:39:06.138Z,6.12
2019-01-17T10:40:05.606Z,6.12
2019-01-17T10:41:06.469Z,6.12
2019-01-17T10:42:05.439Z,6.19
2019-01-17T10:43:05.952Z,6.19
2019-01-17T10:44:05.937Z,6.19
2019-01-17T10:45:05.788Z,6.19
2019-01-17T10:46:05.491Z,6.19
2019-01-17T10:47:05.949Z,6.19
2019-01-17T10:48:06.332Z,6.19
2019-01-17T10:49:05.431Z,6.19
2019-01-17T10:50:06.319Z,6.19
2019-01-17T10:51:05.479Z,6.19
2019-01-17T10:52:06.024Z,6.19
2019-01-17T10:53:05.386Z,6.25
2019-01-17T10:54:06.246Z,6.25
2019-01-17T10:55:05.942Z,6.25
2019-01-17T10:56:05.621Z,6.25
2019-01-17T10:57:05.617Z,6.25
2019-01-17T10:58:05.291Z,6.25
2019-01-17T10:59:06.015Z,6.25
2019-01-17T11:00:05.439Z,6.25
2019-01-17T11:01:06.184Z,6.31
2019-01-17T11:02:05.884Z,6.25
2019-01-17T11:03:05.554Z,6.31
2019-01-17T11:04:05.358Z,6.31
2019-01-17T11:05:05.542Z,6.31
2019-01-17T11:06:05.702Z,6.31
2019-01-17T11:07:06.118Z,6.31
2019-01-17T11:08:05.460Z,6.31
2019-01-17T11:09:05.857Z,6.31
2019-01-17T11:10:05.431Z,6.31
2019-01-17T11:11:05.554Z,6.31
2019-01-17T11:12:06.171Z,6.31
2019-01-17T11:13:05.800Z,6.31
2019-01-17T11:14:05.913Z,6.31
2019-01-17T11:15:06.180Z,6.31
2019-01-17T11:16:06.182Z,6.31
2019-01-17T11:17:06.265Z,6.31
2019-01-17T11:18:05.882Z,6.31
2019-01-17T11:19:05.115Z,6.31
2019-01-17T11:20:05.703Z,6.31
2019-01-17T11:21:05.781Z,6.31
2019-01-17T11:22:05.705Z,6.38
2019-01-17T11:23:05.902Z,6.38
2019-01-17T11:24:05.615Z,6.38
2019-01-17T11:25:06.029Z,6.38
2019-01-17T11:26:05.757Z,6.38
2019-01-17T11:27:05.768Z,6.38
2019-01-17T11:28:06.115Z,6.38
2019-01-17T11:29:05.532Z,6.38
2019-01-17T11:30:06.007Z,6.38
2019-01-17T11:31:05.402Z,6.38
2019-01-17T11:32:05.602Z,6.44
2019-01-17T11:33:05.722Z,6.38
2019-01-17T11:34:05.294Z,6.44
2019-01-17T11:35:06.039Z,6.44
2019-01-17T11:36:05.994Z,6.44
2019-01-17T11:37:05.691Z,6.44
2019-01-17T11:38:05.380Z,6.44
2019-01-17T11:39:06.120Z,6.44
2019-01-17T11:40:05.840Z,6.50
2019-01-17T11:41:05.700Z,6.50
2019-01-17T11:42:05.366Z,6.44
2019-01-17T11:43:06.110Z,6.50
2019-01-17T11:44:05.921Z,6.50
2019-01-17T11:45:05.807Z,6.44
2019-01-17T11:46:06.081Z,6.44
2019-01-17T11:47:05.538Z,6.44
2019-01-17T11:48:06.257Z,6.50
2019-01-17T11:49:06.131Z,6.50
2019-01-17T11:50:06.253Z,6.50
2019-01-17T11:51:05.562Z,6.50
2019-01-17T11:52:05.703Z,6.50
2019-01-17T11:53:06.365Z,6.44
2019-01-17T11:54:05.445Z,6.44
2019-01-17T11:55:05.221Z,6.44
2019-01-17T11:56:06.088Z,6.44
2019-01-17T11:57:06.357Z,6.50
2019-01-17T11:58:05.685Z,6.44
2019-01-17T11:59:05.944Z,6.44
2019-01-17T12:00:05.557Z,6.44
2019-01-17T12:01:06.021Z,6.44
2019-01-17T12:02:05.474Z,6.50
2019-01-17T12:03:06.021Z,6.50
2019-01-17T12:04:06.389Z,6.50
2019-01-17T12:05:05.621Z,6.50
2019-01-17T12:06:06.260Z,6.50
2019-01-17T12:07:05.787Z,6.50
2019-01-17T12:08:05.918Z,6.50
2019-01-17T12:09:05.461Z,6.50
2019-01-17T12:10:05.397Z,6.50
2019-01-17T12:11:06.149Z,6.50
2019-01-17T12:12:06.075Z,6.50
2019-01-17T12:13:05.463Z,6.50
2019-01-17T12:14:05.680Z,6.50
2019-01-17T12:15:05.860Z,6.50
2019-01-17T12:16:05.516Z,6.50
2019-01-17T12:17:06.074Z,6.50
2019-01-17T12:18:05.454Z,6.50
2019-01-17T12:19:05.778Z,6.56
2019-01-17T12:20:05.202Z,6.56
2019-01-17T12:21:06.037Z,6.56
2019-01-17T12:22:05.214Z,6.62
2019-01-17T12:23:05.387Z,6.62
2019-01-17T12:24:06.123Z,6.62
2019-01-17T12:25:05.632Z,6.62
2019-01-17T12:26:05.277Z,6.62
2019-01-17T12:27:06.194Z,6.62
2019-01-17T12:28:05.388Z,6.62
2019-01-17T12:29:05.626Z,6.62
2019-01-17T12:30:05.599Z,6.62
2019-01-17T12:31:05.439Z,6.69
2019-01-17T12:32:05.871Z,6.69
2019-01-17T12:33:05.146Z,6.69
2019-01-17T12:34:06.088Z,6.69
2019-01-17T12:35:05.389Z,6.69
2019-01-17T12:36:05.717Z,6.75
2019-01-17T12:37:06.117Z,6.75
2019-01-17T12:38:06.084Z,6.75
2019-01-17T12:39:05.283Z,6.75
2019-01-17T12:40:06.666Z,6.75
2019-01-17T12:41:05.544Z,6.75
2019-01-17T12:42:06.170Z,6.75
2019-01-17T12:43:05.568Z,6.81
2019-01-17T12:44:06.183Z,6.81
2019-01-17T12:45:06.211Z,6.81
2019-01-17T12:46:05.532Z,6.88
2019-01-17T12:47:05.840Z,6.88
2019-01-17T12:48:05.158Z,6.88
2019-01-17T12:49:05.627Z,6.94
2019-01-17T12:50:05.609Z,6.94
2019-01-17T12:51:05.469Z,6.94
2019-01-17T12:52:06.164Z,7.00
2019-01-17T12:53:05.560Z,7.00
2019-01-17T12:54:05.780Z,7.00
2019-01-17T12:55:05.653Z,7.00
2019-01-17T12:56:05.606Z,7.06
2019-01-17T12:57:06.109Z,7.06
2019-01-17T12:58:06.190Z,7.06
2019-01-17T12:59:05.235Z,7.06
2019-01-17T13:00:07.743Z,7.00
2019-01-17T13:01:05.633Z,7.00
2019-01-17T13:02:05.452Z,7.00
2019-01-17T13:03:05.969Z,7.06
2019-01-17T13:04:05.774Z,7.06
2019-01-17T13:05:05.463Z,7.06
2019-01-17T13:06:05.949Z,7.06
2019-01-17T13:07:05.384Z,7.06
2019-01-17T13:08:06.107Z,7.06
2019-01-17T13:09:06.080Z,7.06
2019-01-17T13:10:05.594Z,7.06
2019-01-17T13:11:05.397Z,7.06
2019-01-17T13:12:05.548Z,7.06
2019-01-17T13:13:06.122Z,7.06
2019-01-17T13:14:05.400Z,7.06
2019-01-17T13:15:06.189Z,7.00
2019-01-17T13:16:05.287Z,7.00
2019-01-17T13:17:06.110Z,7.00
2019-01-17T13:18:06.244Z,7.00